Time;durP1;ratioP1;P1;durP2;ratioP2;P2;SDS_P1;SDS_P2;PMS_P1;PMS_P2;Temp;Humidity;BMP_temperature;BMP_pressure;BME280_temperature;BME280_humidity;BME280_pressure;Samples;Min_cycle;Max_cycle;Signal;HPM_P1;HPM_P2
2022/09/11 00:02:23;;;;;;;2.63;0.63;;;;;;;;;;4973983;28;20105;-71
2022/09/11 00:04:50;;;;;;;2.53;0.57;;;;;;;;;;4973929;28;20077;-70
2022/09/11 00:07:17;;;;;;;2.13;0.50;;;;;;;;;;4973997;28;20054;-71
2022/09/11 00:09:45;;;;;;;2.33;0.75;;;;;;;;;;4973814;28;20382;-71
2022/09/11 00:12:12;;;;;;;2.97;0.80;;;;;;;;;;4973643;28;20102;-72
2022/09/11 00:14:39;;;;;;;2.97;0.85;;;;;;;;;;4973670;28;20023;-70
2022/09/11 00:17:06;;;;;;;1.20;0.45;;;;;;;;;;4973852;28;20035;-70
2022/09/11 00:19:34;;;;;;;1.48;0.57;;;;;;;;;;4973696;28;20027;-70
2022/09/11 00:22:01;;;;;;;3.30;0.60;;;;;;;;;;4972382;28;20375;-70
2022/09/11 00:24:28;;;;;;;2.42;0.90;;;;;;;;;;4973299;28;20026;-70
2022/09/11 00:26:55;;;;;;;2.00;0.60;;;;;;;;;;4973651;28;20449;-71
2022/09/11 00:29:22;;;;;;;1.83;0.60;;;;;;;;;;4973673;28;20094;-71
2022/09/11 00:31:49;;;;;;;2.40;0.80;;;;;;;;;;4973200;28;20444;-71
2022/09/11 00:34:17;;;;;;;4.40;0.80;;;;;;;;;;4972360;28;20034;-70
2022/09/11 00:36:44;;;;;;;1.98;0.50;;;;;;;;;;4973562;28;20027;-70
2022/09/11 00:39:13;;;;;;;1.58;0.60;;;;;;;;;;4973589;28;20037;-71
2022/09/11 00:41:41;;;;;;;2.00;0.60;;;;;;;;;;4975492;28;20034;-70
2022/09/11 00:44:28;;;;;;;1.63;0.50;;;;;;;;;;4977070;28;20027;-70
2022/09/11 00:46:56;;;;;;;1.60;0.60;;;;;;;;;;4976669;28;20031;-70
2022/09/11 00:49:35;;;;;;;1.83;0.63;;;;;;;;;;4976868;28;20051;-70
2022/09/11 00:52:07;;;;;;;2.08;0.70;;;;;;;;;;4975525;28;20027;-70
2022/09/11 00:54:36;;;;;;;3.13;0.90;;;;;;;;;;4977086;28;20065;-71
2022/09/11 00:57:06;;;;;;;2.90;0.60;;;;;;;;;;4977044;28;20077;-71
2022/09/11 00:59:34;;;;;;;2.22;0.80;;;;;;;;;;4975455;28;20031;-71
2022/09/11 01:02:01;;;;;;;2.85;0.93;;;;;;;;;;4976185;28;20097;-71
2022/09/11 01:04:29;;;;;;;3.85;0.60;;;;;;;;;;4976848;28;20027;-71
2022/09/11 01:06:57;;;;;;;2.78;0.60;;;;;;;;;;4976509;28;20106;-69
2022/09/11 01:09:26;;;;;;;2.90;0.70;;;;;;;;;;4976566;28;20023;-70
2022/09/11 01:12:08;;;;;;;2.33;0.57;;;;;;;;;;4976714;28;20018;-70
2022/09/11 01:14:46;;;;;;;2.60;0.70;;;;;;;;;;4976548;28;20027;-70
2022/09/11 01:17:37;;;;;;;2.47;0.50;;;;;;;;;;4976474;28;20046;-70
2022/09/11 01:20:23;;;;;;;2.47;0.80;;;;;;;;;;4976486;28;20525;-70
2022/09/11 01:22:56;;;;;;;2.42;0.45;;;;;;;;;;4976322;28;20035;-69
2022/09/11 01:25:31;;;;;;;2.30;0.70;;;;;;;;;;4976383;28;20106;-70
2022/09/11 01:27:59;;;;;;;2.25;0.80;;;;;;;;;;4976220;28;20103;-70
2022/09/11 01:30:36;;;;;;;3.08;0.90;;;;;;;;;;4976328;28;20471;-69
2022/09/11 01:33:21;;;;;;;1.30;0.50;;;;;;;;;;4976212;28;20035;-70
2022/09/11 01:35:54;;;;;;;1.67;0.45;;;;;;;;;;4976283;28;20026;-69
2022/09/11 01:38:39;;;;;;;1.10;0.50;;;;;;;;;;4974611;28;20031;-71
2022/09/11 01:41:07;;;;;;;1.20;0.60;;;;;;;;;;4976169;28;20019;-71
2022/09/11 01:43:40;;;;;;;1.90;0.75;;;;;;;;;;4975146;28;20023;-69
2022/09/11 01:46:08;;;;;;;1.77;0.60;;;;;;;;;;4976327;28;20359;-71
2022/09/11 01:48:44;;;;;;;1.92;0.68;;;;;;;;;;4975875;28;20022;-69
2022/09/11 01:51:17;;;;;;;1.58;0.50;;;;;;;;;;4976185;28;20035;-68
2022/09/11 01:53:46;;;;;;;1.50;0.60;;;;;;;;;;4974886;28;20023;-69
2022/09/11 01:56:17;;;;;;;2.60;0.57;;;;;;;;;;4975855;28;20094;-69
2022/09/11 01:58:46;;;;;;;2.38;0.60;;;;;;;;;;4974539;28;20533;-69
2022/09/11 02:01:19;;;;;;;2.42;0.50;;;;;;;;;;4974474;28;20058;-69
2022/09/11 02:03:53;;;;;;;1.35;0.57;;;;;;;;;;4975643;28;20030;-69
2022/09/11 02:06:28;;;;;;;1.60;0.55;;;;;;;;;;4975544;28;20023;-69
2022/09/11 02:08:57;;;;;;;3.40;0.70;;;;;;;;;;4974219;28;20475;-68
2022/09/11 02:11:24;;;;;;;1.00;0.43;;;;;;;;;;4974235;28;20023;-69
2022/09/11 02:13:57;;;;;;;2.72;0.52;;;;;;;;;;4973457;28;20054;-69
2022/09/11 02:16:43;;;;;;;2.38;0.70;;;;;;;;;;4971937;28;20494;-69
2022/09/11 02:19:17;;;;;;;1.08;0.40;;;;;;;;;;4973838;28;20528;-68
2022/09/11 02:21:46;;;;;;;1.38;0.57;;;;;;;;;;4973411;28;20113;-68
2022/09/11 02:24:14;;;;;;;3.83;0.45;;;;;;;;;;4972163;28;20041;-70
2022/09/11 02:26:44;;;;;;;1.48;0.50;;;;;;;;;;4973954;28;20041;-69
2022/09/11 02:29:12;;;;;;;3.63;0.30;;;;;;;;;;4974810;28;20026;-69
2022/09/11 02:31:40;;;;;;;1.27;0.40;;;;;;;;;;4974840;28;20101;-69
2022/09/11 02:34:07;;;;;;;1.92;0.60;;;;;;;;;;4975110;28;20019;-69
2022/09/11 02:36:41;;;;;;;2.05;0.40;;;;;;;;;;4974813;28;20099;-69
2022/09/11 02:39:19;;;;;;;1.63;0.50;;;;;;;;;;4975120;28;20483;-69
2022/09/11 02:41:50;;;;;;;1.05;0.40;;;;;;;;;;4973651;28;20027;-70
2022/09/11 02:44:39;;;;;;;1.08;0.40;;;;;;;;;;4974759;28;20478;-70
2022/09/11 02:47:11;;;;;;;2.25;0.60;;;;;;;;;;4964247;28;20039;-70
2022/09/11 02:49:41;;;;;;;2.20;0.50;;;;;;;;;;4974756;28;20068;-69
2022/09/11 02:52:12;;;;;;;1.52;0.50;;;;;;;;;;4974867;28;20025;-69
2022/09/11 02:54:46;;;;;;;2.00;0.50;;;;;;;;;;4974658;28;20019;-69
2022/09/11 02:57:30;;;;;;;1.83;0.52;;;;;;;;;;4974733;28;20026;-69
2022/09/11 03:00:02;;;;;;;1.17;0.40;;;;;;;;;;4974654;28;20026;-68
2022/09/11 03:02:30;;;;;;;1.40;0.40;;;;;;;;;;4974648;28;20019;-69
2022/09/11 03:04:58;;;;;;;2.53;0.50;;;;;;;;;;4974271;28;20387;-69
2022/09/11 03:07:25;;;;;;;1.65;0.43;;;;;;;;;;4973128;28;20080;-68
2022/09/11 03:09:52;;;;;;;0.70;0.38;;;;;;;;;;4973355;28;20070;-68
2022/09/11 03:12:19;;;;;;;1.67;0.50;;;;;;;;;;4974433;28;20042;-68
2022/09/11 03:14:48;;;;;;;1.15;0.60;;;;;;;;;;4974349;28;20414;-69
2022/09/11 03:17:16;;;;;;;2.67;0.50;;;;;;;;;;4971566;28;20577;-69
2022/09/11 03:19:43;;;;;;;0.98;0.50;;;;;;;;;;4974068;28;20051;-70
2022/09/11 03:22:10;;;;;;;2.22;0.88;;;;;;;;;;4974235;28;20058;-71
2022/09/11 03:24:38;;;;;;;1.50;0.55;;;;;;;;;;4973026;28;20023;-70
2022/09/11 03:27:05;;;;;;;2.28;0.47;;;;;;;;;;4973964;28;20030;-71
2022/09/11 03:29:32;;;;;;;3.08;0.70;;;;;;;;;;4973224;28;20382;-70
2022/09/11 03:32:00;;;;;;;1.85;0.60;;;;;;;;;;4973475;28;20035;-70
2022/09/11 03:34:27;;;;;;;2.92;0.70;;;;;;;;;;4974385;28;20445;-69
2022/09/11 03:36:54;;;;;;;1.27;0.47;;;;;;;;;;4971904;28;20054;-70
2022/09/11 03:39:21;;;;;;;1.58;0.65;;;;;;;;;;4972038;28;20414;-70
2022/09/11 03:41:50;;;;;;;1.20;0.45;;;;;;;;;;4972870;28;20081;-70
2022/09/11 03:44:17;;;;;;;4.28;0.47;;;;;;;;;;4973706;28;20479;-70
2022/09/11 03:46:44;;;;;;;1.65;0.60;;;;;;;;;;4972200;28;20031;-70
2022/09/11 03:49:11;;;;;;;1.85;0.50;;;;;;;;;;4973618;28;20031;-70
2022/09/11 03:51:38;;;;;;;1.75;0.60;;;;;;;;;;4973668;28;20026;-70
2022/09/11 03:54:06;;;;;;;1.83;0.50;;;;;;;;;;4972662;28;20129;-70
2022/09/11 03:56:33;;;;;;;1.50;0.50;;;;;;;;;;4973861;28;20485;-69
2022/09/11 03:59:00;;;;;;;1.23;0.60;;;;;;;;;;4972575;28;20037;-69
2022/09/11 04:01:27;;;;;;;1.30;0.38;;;;;;;;;;4973144;28;20027;-68
2022/09/11 04:03:55;;;;;;;1.30;0.52;;;;;;;;;;4973163;28;20027;-70
2022/09/11 04:06:22;;;;;;;0.93;0.50;;;;;;;;;;4973813;28;20146;-70
2022/09/11 04:08:49;;;;;;;1.75;0.57;;;;;;;;;;4972474;28;20019;-70
2022/09/11 04:11:16;;;;;;;0.80;0.40;;;;;;;;;;4973830;28;20030;-70
2022/09/11 04:13:44;;;;;;;1.95;0.50;;;;;;;;;;4973563;28;20145;-69
2022/09/11 04:16:13;;;;;;;1.23;0.45;;;;;;;;;;4975028;28;20023;-69
2022/09/11 04:18:41;;;;;;;1.38;0.63;;;;;;;;;;4977751;28;20030;-69
2022/09/11 04:21:09;;;;;;;1.15;0.40;;;;;;;;;;4977855;28;20025;-70
2022/09/11 04:23:37;;;;;;;1.70;0.47;;;;;;;;;;4977474;28;20038;-69
2022/09/11 04:26:14;;;;;;;0.85;0.50;;;;;;;;;;4977549;28;20115;-70
2022/09/11 04:28:41;;;;;;;2.70;1.02;;;;;;;;;;4977475;28;20380;-69
2022/09/11 04:31:09;;;;;;;5.47;0.90;;;;;;;;;;4977093;28;20081;-69
2022/09/11 04:33:36;;;;;;;2.22;0.60;;;;;;;;;;4975938;28;20395;-69
2022/09/11 04:36:07;;;;;;;1.33;0.65;;;;;;;;;;4977572;28;20019;-69
2022/09/11 04:38:35;;;;;;;3.33;0.50;;;;;;;;;;4977133;28;20030;-70
2022/09/11 04:41:04;;;;;;;2.17;0.50;;;;;;;;;;4977327;28;20529;-69
2022/09/11 04:43:31;;;;;;;2.42;0.63;;;;;;;;;;4977094;28;20027;-69
2022/09/11 04:46:09;;;;;;;1.65;0.35;;;;;;;;;;4977008;28;20487;-69
2022/09/11 04:48:37;;;;;;;1.77;0.47;;;;;;;;;;4977213;28;20039;-69
2022/09/11 04:51:06;;;;;;;1.45;0.73;;;;;;;;;;4977005;28;20475;-68
2022/09/11 04:53:33;;;;;;;1.85;0.65;;;;;;;;;;4976868;28;20383;-69
2022/09/11 04:56:04;;;;;;;2.38;0.50;;;;;;;;;;4977142;28;20094;-68
2022/09/11 04:58:31;;;;;;;1.58;0.50;;;;;;;;;;4976777;28;20038;-69
2022/09/11 05:00:58;;;;;;;1.98;0.65;;;;;;;;;;4976877;28;20050;-69
2022/09/11 05:03:25;;;;;;;2.90;0.75;;;;;;;;;;4976759;28;20563;-69
2022/09/11 05:05:53;;;;;;;1.70;0.60;;;;;;;;;;4976704;28;20382;-69
2022/09/11 05:08:21;;;;;;;1.77;0.80;;;;;;;;;;4976542;28;20033;-69
2022/09/11 05:10:48;;;;;;;1.77;0.68;;;;;;;;;;4976993;28;20026;-69
2022/09/11 05:13:15;;;;;;;2.42;0.80;;;;;;;;;;4976820;28;20019;-69
2022/09/11 05:15:43;;;;;;;2.35;0.93;;;;;;;;;;4975192;28;20019;-69
2022/09/11 05:18:10;;;;;;;1.85;0.63;;;;;;;;;;4976472;28;20026;-69
2022/09/11 05:20:38;;;;;;;2.95;0.60;;;;;;;;;;4976407;28;20058;-69
2022/09/11 05:23:06;;;;;;;2.97;0.80;;;;;;;;;;4976655;28;20043;-69
2022/09/11 05:25:35;;;;;;;3.63;0.70;;;;;;;;;;4974993;28;20505;-69
2022/09/11 05:28:03;;;;;;;3.13;0.82;;;;;;;;;;4974834;28;20391;-69
2022/09/11 05:30:30;;;;;;;2.83;0.73;;;;;;;;;;4974669;28;20050;-70
2022/09/11 05:32:58;;;;;;;2.22;0.70;;;;;;;;;;4976453;28;20033;-70
2022/09/11 05:35:25;;;;;;;2.25;0.70;;;;;;;;;;4976056;28;20023;-69
2022/09/11 05:37:52;;;;;;;2.67;0.77;;;;;;;;;;4976148;28;20422;-69
2022/09/11 05:40:19;;;;;;;2.28;0.80;;;;;;;;;;4976131;28;20029;-70
2022/09/11 05:42:47;;;;;;;2.72;0.60;;;;;;;;;;4976207;28;20023;-69
2022/09/11 05:45:14;;;;;;;2.88;0.70;;;;;;;;;;4976087;28;20042;-69
2022/09/11 05:47:41;;;;;;;3.70;0.63;;;;;;;;;;4976196;28;20038;-69
2022/09/11 05:50:08;;;;;;;1.48;0.50;;;;;;;;;;4975854;28;20046;-70
2022/09/11 05:52:35;;;;;;;2.25;0.80;;;;;;;;;;4975813;28;20019;-69
2022/09/11 05:55:03;;;;;;;2.20;0.60;;;;;;;;;;4975834;28;20027;-69
2022/09/11 05:57:30;;;;;;;2.10;0.70;;;;;;;;;;4975748;28;20486;-69
2022/09/11 05:59:57;;;;;;;3.42;0.90;;;;;;;;;;4974396;28;20023;-69
2022/09/11 06:02:24;;;;;;;3.38;0.90;;;;;;;;;;4975640;28;20023;-68
2022/09/11 06:04:51;;;;;;;3.15;0.82;;;;;;;;;;4975466;28;20042;-70
2022/09/11 06:07:18;;;;;;;2.33;0.47;;;;;;;;;;4975697;28;20038;-70
2022/09/11 06:09:46;;;;;;;5.82;0.80;;;;;;;;;;4975353;28;20097;-70
2022/09/11 06:12:13;;;;;;;4.55;0.80;;;;;;;;;;4974231;28;20446;-70
2022/09/11 06:14:42;;;;;;;2.92;0.65;;;;;;;;;;4975303;28;20082;-70
2022/09/11 06:17:09;;;;;;;1.80;0.70;;;;;;;;;;4975354;28;20376;-70
2022/09/11 06:19:36;;;;;;;2.22;0.55;;;;;;;;;;4975474;28;20029;-69
2022/09/11 06:22:04;;;;;;;3.20;1.20;;;;;;;;;;4975257;28;20102;-70
2022/09/11 06:24:31;;;;;;;3.08;1.00;;;;;;;;;;4975411;28;20034;-70
2022/09/11 06:26:58;;;;;;;2.95;0.60;;;;;;;;;;4974925;28;20034;-70
2022/09/11 06:29:25;;;;;;;2.13;0.70;;;;;;;;;;4975077;28;20023;-69
2022/09/11 06:31:53;;;;;;;3.10;0.68;;;;;;;;;;4974607;28;20046;-69
2022/09/11 06:34:20;;;;;;;2.00;0.80;;;;;;;;;;4975171;28;20026;-69
2022/09/11 06:36:47;;;;;;;2.72;0.60;;;;;;;;;;4973564;28;20022;-69
2022/09/11 06:39:14;;;;;;;4.55;0.90;;;;;;;;;;4974271;28;20054;-69
2022/09/11 06:41:42;;;;;;;3.28;0.70;;;;;;;;;;4974692;28;20034;-69
2022/09/11 06:44:09;;;;;;;2.10;0.60;;;;;;;;;;4975106;28;20102;-69
2022/09/11 06:46:38;;;;;;;2.60;0.82;;;;;;;;;;4974672;28;20109;-69
2022/09/11 06:49:05;;;;;;;2.72;1.00;;;;;;;;;;4975079;28;20022;-69
2022/09/11 06:51:33;;;;;;;3.35;0.90;;;;;;;;;;4974591;28;20031;-69
2022/09/11 06:54:04;;;;;;;4.32;0.80;;;;;;;;;;4974661;28;20518;-68
2022/09/11 06:56:31;;;;;;;2.20;0.90;;;;;;;;;;4974822;28;20102;-69
2022/09/11 06:58:58;;;;;;;5.28;1.10;;;;;;;;;;4974631;28;20029;-68
2022/09/11 07:01:27;;;;;;;4.53;1.23;;;;;;;;;;4974433;28;20399;-69
2022/09/11 07:03:54;;;;;;;2.08;0.88;;;;;;;;;;4974521;28;20070;-69
2022/09/11 07:06:31;;;;;;;4.90;0.70;;;;;;;;;;4973119;28;20030;-70
2022/09/11 07:09:02;;;;;;;2.92;0.80;;;;;;;;;;4974423;28;20023;-68
2022/09/11 07:11:33;;;;;;;3.92;1.05;;;;;;;;;;4973062;28;20482;-69
2022/09/11 07:14:05;;;;;;;2.92;1.20;;;;;;;;;;4974467;28;20029;-69
2022/09/11 07:16:32;;;;;;;6.18;0.80;;;;;;;;;;4974390;28;20536;-69
2022/09/11 07:18:59;;;;;;;4.05;0.75;;;;;;;;;;4974352;28;20019;-69
2022/09/11 07:21:27;;;;;;;4.07;0.80;;;;;;;;;;4974387;28;20074;-69
2022/09/11 07:23:55;;;;;;;3.25;0.90;;;;;;;;;;4974232;28;20023;-69
2022/09/11 07:26:24;;;;;;;3.90;1.10;;;;;;;;;;4974306;28;20077;-69
2022/09/11 07:28:51;;;;;;;3.55;1.10;;;;;;;;;;4974169;28;20038;-69
2022/09/11 07:31:20;;;;;;;4.53;1.10;;;;;;;;;;4972764;28;20499;-69
2022/09/11 07:33:48;;;;;;;2.33;1.23;;;;;;;;;;4974194;28;20479;-69
2022/09/11 07:36:30;;;;;;;3.85;3.15;;;;;;;;;;4974381;28;20022;-69
2022/09/11 07:38:57;;;;;;;4.05;3.03;;;;;;;;;;4973938;28;20022;-69
2022/09/11 07:41:25;;;;;;;3.47;2.53;;;;;;;;;;4974061;28;20023;-69
2022/09/11 07:43:53;;;;;;;5.55;2.22;;;;;;;;;;4973921;28;20483;-69
2022/09/11 07:46:20;;;;;;;3.88;1.40;;;;;;;;;;4974118;28;20038;-69
2022/09/11 07:48:48;;;;;;;2.38;1.15;;;;;;;;;;4973952;28;20023;-69
2022/09/11 07:51:17;;;;;;;3.25;1.23;;;;;;;;;;4975604;28;20476;-69
2022/09/11 07:53:49;;;;;;;3.40;1.02;;;;;;;;;;4977982;28;20023;-69
2022/09/11 07:56:17;;;;;;;3.97;1.10;;;;;;;;;;4976728;28;20030;-69
2022/09/11 07:58:45;;;;;;;4.05;1.30;;;;;;;;;;4978038;28;20022;-69
2022/09/11 08:01:14;;;;;;;2.65;1.00;;;;;;;;;;4977960;28;20094;-69
2022/09/11 08:03:44;;;;;;;3.08;1.15;;;;;;;;;;4976611;28;20035;-69
2022/09/11 08:06:15;;;;;;;4.00;1.02;;;;;;;;;;4976854;28;20438;-70
2022/09/11 08:08:42;;;;;;;2.38;1.00;;;;;;;;;;4977799;28;20050;-69
2022/09/11 08:11:11;;;;;;;2.03;0.90;;;;;;;;;;4977678;28;20027;-69
2022/09/11 08:13:38;;;;;;;3.97;1.20;;;;;;;;;;4976355;28;20027;-69
2022/09/11 08:16:06;;;;;;;3.60;1.50;;;;;;;;;;4978166;28;20069;-70
2022/09/11 08:18:36;;;;;;;1.95;1.25;;;;;;;;;;4977735;28;20027;-69
2022/09/11 08:21:10;;;;;;;5.25;1.42;;;;;;;;;;4977694;28;20504;-70
2022/09/11 08:23:39;;;;;;;5.20;1.13;;;;;;;;;;4977859;28;20049;-69
2022/09/11 08:26:07;;;;;;;2.60;1.10;;;;;;;;;;4977826;28;20022;-69
2022/09/11 08:28:35;;;;;;;2.75;0.90;;;;;;;;;;4977479;28;20039;-69
2022/09/11 08:31:04;;;;;;;3.90;1.33;;;;;;;;;;4976004;28;20117;-69
2022/09/11 08:33:32;;;;;;;4.85;1.65;;;;;;;;;;4977412;28;20027;-69
2022/09/11 08:35:59;;;;;;;4.35;1.40;;;;;;;;;;4977482;28;20023;-69
2022/09/11 08:38:27;;;;;;;4.20;1.80;;;;;;;;;;4977507;28;20026;-69
2022/09/11 08:40:56;;;;;;;4.22;1.40;;;;;;;;;;4976004;28;20027;-69
2022/09/11 08:43:34;;;;;;;5.47;1.85;;;;;;;;;;4977274;28;20029;-69
2022/09/11 08:46:03;;;;;;;4.68;1.95;;;;;;;;;;4977276;28;20085;-69
2022/09/11 08:48:45;;;;;;;4.65;2.10;;;;;;;;;;4977134;28;20027;-69
2022/09/11 08:51:14;;;;;;;4.30;1.85;;;;;;;;;;4977330;28;20093;-69
2022/09/11 08:53:42;;;;;;;5.80;2.30;;;;;;;;;;4977042;28;20038;-69
2022/09/11 08:56:12;;;;;;;6.90;2.15;;;;;;;;;;4976956;28;20019;-68
2022/09/11 08:58:43;;;;;;;4.93;2.03;;;;;;;;;;4976623;28;20482;-72
2022/09/11 09:01:28;;;;;;;5.78;2.67;;;;;;;;;;4976698;28;20026;-72
2022/09/11 09:04:10;;;;;;;10.32;6.82;;;;;;;;;;4976981;28;20482;-72
2022/09/11 09:06:44;;;;;;;7.20;3.28;;;;;;;;;;4976940;28;21958;-72
2022/09/11 09:09:11;;;;;;;7.40;2.55;;;;;;;;;;4975529;28;20077;-72
2022/09/11 09:11:41;;;;;;;7.15;2.13;;;;;;;;;;4975838;28;20026;-72
2022/09/11 09:14:24;;;;;;;4.60;2.03;;;;;;;;;;4974974;28;20093;-73
2022/09/11 09:16:56;;;;;;;6.65;3.22;;;;;;;;;;4975286;28;20070;-72
2022/09/11 09:19:41;;;;;;;7.22;4.03;;;;;;;;;;4975333;28;20027;-72
2022/09/11 09:22:17;;;;;;;5.78;3.00;;;;;;;;;;4975163;28;20031;-72
2022/09/11 09:24:59;;;;;;;7.93;4.65;;;;;;;;;;4973818;28;20487;-72
2022/09/11 09:27:31;;;;;;;4.35;2.92;;;;;;;;;;4975803;28;20471;-73
2022/09/11 09:29:59;;;;;;;7.38;3.53;;;;;;;;;;4976482;28;20387;-72
2022/09/11 09:32:31;;;;;;;5.65;2.95;;;;;;;;;;4976100;28;20043;-72
2022/09/11 09:35:01;;;;;;;5.35;2.45;;;;;;;;;;4976207;28;20023;-72
2022/09/11 09:37:28;;;;;;;6.32;1.77;;;;;;;;;;4974958;28;20046;-73
2022/09/11 09:39:56;;;;;;;4.25;2.05;;;;;;;;;;4976074;28;20505;-72
2022/09/11 09:42:32;;;;;;;4.03;1.67;;;;;;;;;;4976340;28;20038;-72
2022/09/11 09:45:00;;;;;;;3.75;1.42;;;;;;;;;;4976000;28;20030;-72
2022/09/11 09:47:28;;;;;;;2.67;1.30;;;;;;;;;;4975928;28;20022;-71
2022/09/11 09:49:57;;;;;;;3.03;1.45;;;;;;;;;;4975965;28;20023;-71
2022/09/11 09:52:25;;;;;;;3.30;1.20;;;;;;;;;;4976024;28;20055;-71
2022/09/11 09:55:01;;;;;;;2.50;1.48;;;;;;;;;;4975767;28;20442;-71
2022/09/11 09:57:33;;;;;;;2.50;1.02;;;;;;;;;;4974487;28;20031;-71
2022/09/11 10:00:06;;;;;;;3.80;1.30;;;;;;;;;;4975761;28;20419;-71
2022/09/11 10:02:36;;;;;;;2.42;1.10;;;;;;;;;;4974342;28;20027;-71
2022/09/11 10:05:26;;;;;;;3.33;0.93;;;;;;;;;;4975761;28;20030;-73
2022/09/11 10:07:56;;;;;;;3.63;1.20;;;;;;;;;;4969071;28;20031;-70
2022/09/11 10:10:25;;;;;;;3.58;1.25;;;;;;;;;;4974154;28;20029;-71
2022/09/11 10:12:54;;;;;;;4.78;1.55;;;;;;;;;;4975042;28;20094;-70
2022/09/11 10:15:23;;;;;;;3.05;1.20;;;;;;;;;;4974899;28;20435;-69
2022/09/11 10:17:51;;;;;;;3.40;1.10;;;;;;;;;;4975587;28;20023;-71
2022/09/11 10:20:18;;;;;;;2.65;1.00;;;;;;;;;;4975522;28;20029;-71
2022/09/11 10:22:46;;;;;;;3.85;1.40;;;;;;;;;;4974220;28;20033;-71
2022/09/11 10:25:16;;;;;;;3.55;1.58;;;;;;;;;;4975328;28;20033;-70
2022/09/11 10:27:43;;;;;;;2.65;1.08;;;;;;;;;;4975212;28;20027;-71
2022/09/11 10:30:28;;;;;;;2.53;1.20;;;;;;;;;;4975366;28;20015;-73
2022/09/11 10:32:56;;;;;;;3.53;1.30;;;;;;;;;;4975427;28;20038;-73
2022/09/11 10:35:26;;;;;;;3.75;1.48;;;;;;;;;;4975131;28;20368;-73
2022/09/11 10:38:02;;;;;;;3.92;1.30;;;;;;;;;;4973866;28;20027;-73
2022/09/11 10:40:29;;;;;;;5.15;1.75;;;;;;;;;;4975070;28;20030;-73
2022/09/11 10:42:57;;;;;;;4.45;1.60;;;;;;;;;;4974986;28;20106;-73
2022/09/11 10:45:24;;;;;;;4.10;1.30;;;;;;;;;;4975146;28;20061;-73
2022/09/11 10:47:51;;;;;;;4.03;1.35;;;;;;;;;;4973619;28;20045;-73
2022/09/11 10:50:20;;;;;;;3.97;1.55;;;;;;;;;;4973700;28;20034;-73
2022/09/11 10:52:48;;;;;;;4.22;1.80;;;;;;;;;;4974936;28;20027;-71
2022/09/11 10:55:16;;;;;;;3.20;1.40;;;;;;;;;;4974834;28;20026;-70
2022/09/11 10:57:50;;;;;;;3.65;1.50;;;;;;;;;;4973497;28;20442;-71
2022/09/11 11:00:25;;;;;;;3.13;1.42;;;;;;;;;;4975064;28;20025;-71
2022/09/11 11:02:57;;;;;;;3.15;1.42;;;;;;;;;;4974757;28;20536;-70
2022/09/11 11:05:32;;;;;;;3.42;1.30;;;;;;;;;;4974564;28;20026;-71
2022/09/11 11:08:06;;;;;;;3.20;1.13;;;;;;;;;;4973638;28;20023;-71
2022/09/11 11:10:46;;;;;;;3.50;1.20;;;;;;;;;;4974784;28;20499;-70
2022/09/11 11:13:23;;;;;;;3.90;0.95;;;;;;;;;;4974501;28;20026;-71
2022/09/11 11:15:56;;;;;;;2.85;1.25;;;;;;;;;;4974822;28;20018;-72
2022/09/11 11:18:53;;;;;;;3.33;1.25;;;;;;;;;;4974499;28;20050;-71
2022/09/11 11:21:28;;;;;;;3.50;1.05;;;;;;;;;;4955867;28;20122;-70
2022/09/11 11:24:07;;;;;;;4.03;1.15;;;;;;;;;;4973142;28;20029;-70
2022/09/11 11:26:50;;;;;;;3.47;0.85;;;;;;;;;;4974283;28;20031;-71
2022/09/11 11:29:32;;;;;;;2.63;1.20;;;;;;;;;;4974478;28;20025;-71
2022/09/11 11:32:13;;;;;;;3.35;0.80;;;;;;;;;;4973929;28;20114;-72
2022/09/11 11:34:51;;;;;;;3.15;1.58;;;;;;;;;;4974366;28;20391;-70
2022/09/11 11:37:20;;;;;;;4.68;1.05;;;;;;;;;;4974501;28;20105;-71
2022/09/11 11:40:07;;;;;;;3.50;0.98;;;;;;;;;;4974228;28;20103;-70
2022/09/11 11:42:39;;;;;;;5.07;1.00;;;;;;;;;;4963269;28;20184;-70
2022/09/11 11:45:17;;;;;;;5.05;1.17;;;;;;;;;;4974306;28;20027;-70
2022/09/11 11:47:46;;;;;;;3.25;0.65;;;;;;;;;;4974170;28;20506;-69
2022/09/11 11:50:16;;;;;;;3.38;0.93;;;;;;;;;;4974306;28;20442;-70
2022/09/11 11:52:49;;;;;;;2.58;1.05;;;;;;;;;;4974070;28;20022;-70
2022/09/11 11:55:21;;;;;;;2.35;0.70;;;;;;;;;;4972754;28;20059;-71
2022/09/11 11:57:58;;;;;;;1.42;0.65;;;;;;;;;;4974009;28;20031;-71
2022/09/11 12:00:26;;;;;;;2.33;0.50;;;;;;;;;;4974111;28;20391;-70
2022/09/11 12:03:14;;;;;;;1.92;0.60;;;;;;;;;;4973973;28;20158;-70
2022/09/11 12:05:41;;;;;;;3.58;0.80;;;;;;;;;;4973471;28;20027;-71
2022/09/11 12:08:15;;;;;;;3.55;0.90;;;;;;;;;;4972760;28;20037;-71
2022/09/11 12:11:05;;;;;;;2.35;0.93;;;;;;;;;;4973869;28;20050;-73
2022/09/11 12:13:37;;;;;;;4.55;1.70;;;;;;;;;;4973898;28;20054;-74
2022/09/11 12:16:04;;;;;;;3.17;0.70;;;;;;;;;;4972641;28;20450;-74
2022/09/11 12:18:31;;;;;;;2.53;0.60;;;;;;;;;;4973840;28;20030;-75
2022/09/11 12:21:16;;;;;;;3.28;0.90;;;;;;;;;;4973808;28;20081;-74
2022/09/11 12:23:46;;;;;;;2.72;0.85;;;;;;;;;;4973773;28;20117;-74
2022/09/11 12:26:18;;;;;;;3.17;0.97;;;;;;;;;;4973773;28;20037;-73
2022/09/11 12:28:46;;;;;;;3.15;0.90;;;;;;;;;;4972403;28;20491;-76
2022/09/11 12:31:14;;;;;;;1.30;0.60;;;;;;;;;;4973174;28;20049;-78
2022/09/11 12:33:53;;;;;;;2.33;0.70;;;;;;;;;;4973772;28;20049;-78
2022/09/11 12:36:23;;;;;;;2.88;0.80;;;;;;;;;;4973316;28;20030;-77
2022/09/11 12:38:54;;;;;;;4.25;1.02;;;;;;;;;;4977915;28;20406;-79
2022/09/11 12:41:35;;;;;;;2.33;0.63;;;;;;;;;;4978598;28;20038;-81
2022/09/11 12:44:01;;;;;;;;;;;;;;;;;;4980426;28;20077;-80
2022/09/11 12:46:28;;;;;;;2.67;0.85;;;;;;;;;;4978936;28;19912;-81
2022/09/11 12:49:06;;;;;;;2.60;0.77;;;;;;;;;;4979868;28;20063;-80
2022/09/11 12:51:41;;;;;;;1.40;0.57;;;;;;;;;;4977190;28;20399;-80
2022/09/11 12:54:14;;;;;;;3.17;0.65;;;;;;;;;;4978087;28;20462;-80
2022/09/11 12:56:50;;;;;;;2.97;0.80;;;;;;;;;;4978310;28;20069;-80
2022/09/11 12:59:30;;;;;;;4.43;0.73;;;;;;;;;;4977203;28;20030;-79
2022/09/11 13:01:57;;;;;;;2.45;0.70;;;;;;;;;;4979024;28;20026;-79
2022/09/11 13:04:27;;;;;;;3.78;0.80;;;;;;;;;;4978932;28;20023;-80
2022/09/11 13:06:56;;;;;;;2.40;1.30;;;;;;;;;;4979909;28;20030;-79
2022/09/11 13:09:29;;;;;;;4.15;0.77;;;;;;;;;;4977116;28;20063;-79
2022/09/11 13:11:57;;;;;;;4.50;0.90;;;;;;;;;;4979470;28;20023;-80
2022/09/11 13:14:31;;;;;;;3.38;0.50;;;;;;;;;;4978162;28;20046;-79
2022/09/11 13:17:02;;;;;;;2.67;0.80;;;;;;;;;;4978653;28;20042;-79
2022/09/11 13:19:33;;;;;;;3.55;0.85;;;;;;;;;;4976974;28;20028;-79
2022/09/11 13:22:00;;;;;;;2.15;0.68;;;;;;;;;;4977655;28;20380;-79
2022/09/11 13:24:29;;;;;;;2.70;0.68;;;;;;;;;;4977354;28;20031;-79
2022/09/11 13:26:58;;;;;;;5.00;1.00;;;;;;;;;;4975129;28;20443;-78
2022/09/11 13:29:32;;;;;;;3.20;0.88;;;;;;;;;;4977039;28;20030;-80
2022/09/11 13:32:02;;;;;;;3.08;0.70;;;;;;;;;;4976568;28;20051;-79
2022/09/11 13:34:30;;;;;;;2.30;0.65;;;;;;;;;;4975396;28;20031;-80
2022/09/11 13:36:58;;;;;;;1.75;0.70;;;;;;;;;;4975104;28;20101;-80
2022/09/11 13:39:26;;;;;;;3.70;1.00;;;;;;;;;;4975740;28;20053;-80
2022/09/11 13:41:59;;;;;;;2.70;0.75;;;;;;;;;;4974414;28;20390;-80
2022/09/11 13:44:38;;;;;;;2.35;0.88;;;;;;;;;;4974931;28;20027;-81
2022/09/11 13:47:17;;;;;;;2.70;0.50;;;;;;;;;;4975598;28;20443;-80
2022/09/11 13:49:46;;;;;;;3.65;0.75;;;;;;;;;;4976540;28;20019;-80
2022/09/11 13:52:14;;;;;;;2.22;0.85;;;;;;;;;;4976147;28;20019;-80
2022/09/11 13:54:48;;;;;;;3.63;0.77;;;;;;;;;;4976350;28;20445;-80
2022/09/11 13:57:19;;;;;;;4.05;0.55;;;;;;;;;;4976317;28;20023;-80
2022/09/11 13:59:53;;;;;;;2.00;0.70;;;;;;;;;;4976606;28;20114;-80
2022/09/11 14:02:26;;;;;;;2.53;0.57;;;;;;;;;;4976409;28;20531;-80
2022/09/11 14:04:57;;;;;;;3.35;0.90;;;;;;;;;;4976073;28;20027;-80
2022/09/11 14:07:28;;;;;;;2.75;0.70;;;;;;;;;;4974828;28;20046;-80
2022/09/11 14:09:59;;;;;;;4.47;0.50;;;;;;;;;;4975455;28;20088;-81
2022/09/11 14:12:27;;;;;;;3.25;0.70;;;;;;;;;;4974699;28;20069;-81
2022/09/11 14:15:00;;;;;;;4.43;0.70;;;;;;;;;;4974692;28;20483;-80
2022/09/11 14:17:31;;;;;;;3.75;0.50;;;;;;;;;;4975865;28;20550;-81
2022/09/11 14:20:00;;;;;;;3.08;0.65;;;;;;;;;;4958461;28;20578;-80
2022/09/11 14:22:30;;;;;;;3.33;0.77;;;;;;;;;;4974566;28;20368;-81
2022/09/11 14:25:13;;;;;;;4.43;0.80;;;;;;;;;;4958490;28;20027;-80
2022/09/11 14:27:43;;;;;;;1.63;0.55;;;;;;;;;;4974396;28;20129;-80
2022/09/11 14:30:44;;;;;;;3.13;0.68;;;;;;;;;;4976178;28;20037;-81
2022/09/11 14:33:24;;;;;;;3.07;0.77;;;;;;;;;;4964160;28;20499;-81
2022/09/11 14:35:53;;;;;;;3.20;1.30;;;;;;;;;;4974159;28;20109;-81
2022/09/11 14:38:21;;;;;;;3.03;0.70;;;;;;;;;;4974163;28;20069;-81
2022/09/11 14:41:03;;;;;;;2.75;0.60;;;;;;;;;;4975204;28;20170;-80
2022/09/11 14:43:31;;;;;;;3.15;0.90;;;;;;;;;;4974082;28;20084;-80
2022/09/11 14:46:02;;;;;;;2.33;0.52;;;;;;;;;;4974279;28;20045;-80
2022/09/11 14:48:31;;;;;;;3.67;0.60;;;;;;;;;;4973935;28;20058;-80
2022/09/11 14:51:05;;;;;;;4.35;1.00;;;;;;;;;;4975243;28;20030;-79
2022/09/11 14:53:33;;;;;;;2.95;0.65;;;;;;;;;;4958478;28;20081;-80
2022/09/11 14:56:01;;;;;;;3.92;0.80;;;;;;;;;;4975267;28;20023;-79
2022/09/11 14:58:29;;;;;;;3.42;1.23;;;;;;;;;;4974128;28;20022;-80
2022/09/11 15:00:58;;;;;;;3.17;0.63;;;;;;;;;;4973601;28;20061;-81
2022/09/11 15:03:25;;;;;;;4.45;0.93;;;;;;;;;;4973969;28;20035;-80
2022/09/11 15:05:55;;;;;;;4.90;0.60;;;;;;;;;;4974641;28;20517;-81